sensor_id;sensor_type;location;lat;lon;timestamp;pressure;altitude;pressure_sealevel;temperature;humidity
13705;BME280;6924;52.122;9.952;2022-07-30T00:01:35;100531.41;;;20.15;65.07
13705;BME280;6924;52.122;9.952;2022-07-30T00:04:02;100527.50;;;20.04;65.86
13705;BME280;6924;52.122;9.952;2022-07-30T00:06:28;100532.81;;;20.02;65.84
13705;BME280;6924;52.122;9.952;2022-07-30T00:08:55;100526.53;;;19.96;66.55
13705;BME280;6924;52.122;9.952;2022-07-30T00:11:21;100525.25;;;19.94;66.57
13705;BME280;6924;52.122;9.952;2022-07-30T00:13:48;100526.91;;;19.95;66.50
13705;BME280;6924;52.122;9.952;2022-07-30T00:16:14;100530.09;;;19.90;66.91
13705;BME280;6924;52.122;9.952;2022-07-30T00:18:42;100525.63;;;19.92;66.86
13705;BME280;6924;52.122;9.952;2022-07-30T00:21:08;100524.44;;;19.93;66.82
13705;BME280;6924;52.122;9.952;2022-07-30T00:23:35;100523.66;;;19.96;66.89
13705;BME280;6924;52.122;9.952;2022-07-30T00:26:01;100523.28;;;19.98;67.00
13705;BME280;6924;52.122;9.952;2022-07-30T00:28:28;100521.25;;;19.98;66.81
13705;BME280;6924;52.122;9.952;2022-07-30T00:30:54;100516.31;;;19.99;66.84
13705;BME280;6924;52.122;9.952;2022-07-30T00:33:20;100514.72;;;20.01;67.14
13705;BME280;6924;52.122;9.952;2022-07-30T00:35:48;100525.38;;;20.01;66.85
13705;BME280;6924;52.122;9.952;2022-07-30T00:38:15;100517.56;;;19.98;67.31
13705;BME280;6924;52.122;9.952;2022-07-30T00:40:41;100518.00;;;20.00;66.82
13705;BME280;6924;52.122;9.952;2022-07-30T00:43:13;100515.50;;;19.98;67.10
13705;BME280;6924;52.122;9.952;2022-07-30T00:45:39;100517.56;;;19.98;67.03
13705;BME280;6924;52.122;9.952;2022-07-30T00:48:06;100516.31;;;19.99;66.99
13705;BME280;6924;52.122;9.952;2022-07-30T00:50:32;100516.69;;;19.97;67.55
13705;BME280;6924;52.122;9.952;2022-07-30T00:53:00;100519.56;;;19.97;67.85
13705;BME280;6924;52.122;9.952;2022-07-30T00:55:26;100517.47;;;19.94;68.00
13705;BME280;6924;52.122;9.952;2022-07-30T00:57:53;100520.34;;;19.94;68.26
13705;BME280;6924;52.122;9.952;2022-07-30T01:00:19;100527.31;;;19.93;68.16
13705;BME280;6924;52.122;9.952;2022-07-30T01:02:46;100520.72;;;19.93;68.84
13705;BME280;6924;52.122;9.952;2022-07-30T01:05:12;100524.81;;;19.92;68.86
13705;BME280;6924;52.122;9.952;2022-07-30T01:07:39;100522.72;;;19.89;69.34
13705;BME280;6924;52.122;9.952;2022-07-30T01:10:09;100517.69;;;19.86;70.51
13705;BME280;6924;52.122;9.952;2022-07-30T01:12:36;100511.50;;;19.84;71.07
13705;BME280;6924;52.122;9.952;2022-07-30T01:15:05;100514.69;;;19.78;71.90
13705;BME280;6924;52.122;9.952;2022-07-30T01:17:32;100517.47;;;19.75;72.71
13705;BME280;6924;52.122;9.952;2022-07-30T01:20:06;100504.72;;;19.72;73.51
13705;BME280;6924;52.122;9.952;2022-07-30T01:22:43;100516.50;;;19.67;73.70
13705;BME280;6924;52.122;9.952;2022-07-30T01:25:16;100519.72;;;19.66;74.04
13705;BME280;6924;52.122;9.952;2022-07-30T01:27:49;100527.06;;;19.63;74.58
13705;BME280;6924;52.122;9.952;2022-07-30T01:30:19;100528.56;;;19.57;74.82
13705;BME280;6924;52.122;9.952;2022-07-30T01:32:48;100531.75;;;19.52;75.40
13705;BME280;6924;52.122;9.952;2022-07-30T01:35:17;100538.66;;;19.51;75.94
13705;BME280;6924;52.122;9.952;2022-07-30T01:37:45;100534.22;;;19.53;75.56
13705;BME280;6924;52.122;9.952;2022-07-30T01:40:13;100544.03;;;19.52;75.64
13705;BME280;6924;52.122;9.952;2022-07-30T01:42:41;100540.34;;;19.52;75.64
13705;BME280;6924;52.122;9.952;2022-07-30T01:45:11;100544.84;;;19.53;75.86
13705;BME280;6924;52.122;9.952;2022-07-30T01:47:38;100551.41;;;19.53;75.39
13705;BME280;6924;52.122;9.952;2022-07-30T01:50:10;100557.47;;;19.48;75.95
13705;BME280;6924;52.122;9.952;2022-07-30T01:52:39;100557.84;;;19.47;76.40
13705;BME280;6924;52.122;9.952;2022-07-30T01:55:07;100559.41;;;19.44;76.47
13705;BME280;6924;52.122;9.952;2022-07-30T01:57:36;100552.84;;;19.44;76.55
13705;BME280;6924;52.122;9.952;2022-07-30T02:00:05;100562.75;;;19.46;76.16
13705;BME280;6924;52.122;9.952;2022-07-30T02:02:35;100561.78;;;19.38;76.58
13705;BME280;6924;52.122;9.952;2022-07-30T02:05:03;100560.84;;;19.34;76.75
13705;BME280;6924;52.122;9.952;2022-07-30T02:07:34;100573.97;;;19.35;77.27
13705;BME280;6924;52.122;9.952;2022-07-30T02:10:04;100571.97;;;19.36;77.44
13705;BME280;6924;52.122;9.952;2022-07-30T02:12:33;100569.00;;;19.32;77.90
13705;BME280;6924;52.122;9.952;2022-07-30T02:15:09;100566.78;;;19.26;78.76
13705;BME280;6924;52.122;9.952;2022-07-30T02:17:41;100575.84;;;19.28;78.48
13705;BME280;6924;52.122;9.952;2022-07-30T02:20:09;100574.84;;;19.20;80.00
13705;BME280;6924;52.122;9.952;2022-07-30T02:22:39;100574.78;;;19.16;80.84
13705;BME280;6924;52.122;9.952;2022-07-30T02:25:07;100571.53;;;19.18;81.49
13705;BME280;6924;52.122;9.952;2022-07-30T02:27:37;100576.44;;;19.17;82.09
13705;BME280;6924;52.122;9.952;2022-07-30T02:30:07;100571.53;;;19.18;82.11
13705;BME280;6924;52.122;9.952;2022-07-30T02:32:36;100581.25;;;19.13;82.25
13705;BME280;6924;52.122;9.952;2022-07-30T02:35:08;100577.47;;;19.09;83.00
13705;BME280;6924;52.122;9.952;2022-07-30T02:37:37;100588.94;;;19.09;82.96
13705;BME280;6924;52.122;9.952;2022-07-30T02:40:05;100579.50;;;19.09;83.34
13705;BME280;6924;52.122;9.952;2022-07-30T02:42:32;100588.84;;;19.06;83.74
13705;BME280;6924;52.122;9.952;2022-07-30T02:45:00;100594.88;;;19.01;84.99
13705;BME280;6924;52.122;9.952;2022-07-30T02:47:27;100594.88;;;19.01;85.90
13705;BME280;6924;52.122;9.952;2022-07-30T02:49:55;100593.19;;;18.99;85.21
13705;BME280;6924;52.122;9.952;2022-07-30T02:52:25;100592.75;;;18.97;85.61
13705;BME280;6924;52.122;9.952;2022-07-30T02:54:55;100596.72;;;18.93;86.33
13705;BME280;6924;52.122;9.952;2022-07-30T02:57:22;100590.72;;;18.82;88.59
13705;BME280;6924;52.122;9.952;2022-07-30T02:59:49;100587.50;;;18.84;88.95
13705;BME280;6924;52.122;9.952;2022-07-30T03:02:17;100591.94;;;18.81;88.98
13705;BME280;6924;52.122;9.952;2022-07-30T03:04:45;100594.56;;;18.74;88.56
13705;BME280;6924;52.122;9.952;2022-07-30T03:07:13;100603.44;;;18.69;89.90
13705;BME280;6924;52.122;9.952;2022-07-30T03:09:42;100600.88;;;18.64;90.10
13705;BME280;6924;52.122;9.952;2022-07-30T03:12:11;100606.13;;;18.62;91.36
13705;BME280;6924;52.122;9.952;2022-07-30T03:14:39;100602.69;;;18.56;91.96
13705;BME280;6924;52.122;9.952;2022-07-30T03:17:07;100607.88;;;18.50;93.44
13705;BME280;6924;52.122;9.952;2022-07-30T03:19:36;100608.13;;;18.45;94.18
13705;BME280;6924;52.122;9.952;2022-07-30T03:22:06;100610.44;;;18.40;95.26
13705;BME280;6924;52.122;9.952;2022-07-30T03:24:35;100612.84;;;18.37;95.65
13705;BME280;6924;52.122;9.952;2022-07-30T03:27:05;100602.59;;;18.36;95.30
13705;BME280;6924;52.122;9.952;2022-07-30T03:29:33;100608.94;;;18.30;96.53
13705;BME280;6924;52.122;9.952;2022-07-30T03:32:00;100608.50;;;18.28;97.29
13705;BME280;6924;52.122;9.952;2022-07-30T03:34:30;100612.19;;;18.28;96.87
13705;BME280;6924;52.122;9.952;2022-07-30T03:36:58;100615.41;;;18.27;96.71
13705;BME280;6924;52.122;9.952;2022-07-30T03:39:26;100616.69;;;18.29;96.54
13705;BME280;6924;52.122;9.952;2022-07-30T03:41:53;100620.31;;;18.26;96.46
13705;BME280;6924;52.122;9.952;2022-07-30T03:44:22;100622.59;;;18.21;97.03
13705;BME280;6924;52.122;9.952;2022-07-30T03:46:49;100638.81;;;18.16;97.28
13705;BME280;6924;52.122;9.952;2022-07-30T03:49:18;100639.56;;;18.13;97.23
13705;BME280;6924;52.122;9.952;2022-07-30T03:51:45;100641.59;;;18.13;97.55
13705;BME280;6924;52.122;9.952;2022-07-30T03:54:14;100648.91;;;18.10;97.66
13705;BME280;6924;52.122;9.952;2022-07-30T03:56:41;100647.56;;;18.08;97.90
13705;BME280;6924;52.122;9.952;2022-07-30T03:59:08;100645.91;;;18.07;98.08
13705;BME280;6924;52.122;9.952;2022-07-30T04:01:36;100647.84;;;18.03;98.16
13705;BME280;6924;52.122;9.952;2022-07-30T04:04:04;100653.91;;;18.01;98.58
13705;BME280;6924;52.122;9.952;2022-07-30T04:06:30;100662.06;;;17.99;98.66
13705;BME280;6924;52.122;9.952;2022-07-30T04:08:57;100662.75;;;17.96;99.25
13705;BME280;6924;52.122;9.952;2022-07-30T04:11:24;100668.00;;;17.94;99.80
13705;BME280;6924;52.122;9.952;2022-07-30T04:13:50;100667.66;;;17.95;99.72
13705;BME280;6924;52.122;9.952;2022-07-30T04:16:19;100673.38;;;17.95;98.94
13705;BME280;6924;52.122;9.952;2022-07-30T04:18:50;100676.72;;;17.98;99.27
13705;BME280;6924;52.122;9.952;2022-07-30T04:21:20;100672.56;;;17.95;99.03
13705;BME280;6924;52.122;9.952;2022-07-30T04:23:49;100673.38;;;17.95;98.59
13705;BME280;6924;52.122;9.952;2022-07-30T04:26:16;100675.66;;;17.90;99.18
13705;BME280;6924;52.122;9.952;2022-07-30T04:28:44;100668.28;;;17.89;99.92
13705;BME280;6924;52.122;9.952;2022-07-30T04:31:11;100668.97;;;17.86;100.00
13705;BME280;6924;52.122;9.952;2022-07-30T04:33:37;100668.53;;;17.84;100.00
13705;BME280;6924;52.122;9.952;2022-07-30T04:36:07;100669.72;;;17.83;100.00
13705;BME280;6924;52.122;9.952;2022-07-30T04:38:33;100669.22;;;17.81;100.00
13705;BME280;6924;52.122;9.952;2022-07-30T04:41:00;100671.25;;;17.80;100.00
13705;BME280;6924;52.122;9.952;2022-07-30T04:43:27;100668.38;;;17.80;100.00
13705;BME280;6924;52.122;9.952;2022-07-30T04:45:54;100672.81;;;17.77;100.00
13705;BME280;6924;52.122;9.952;2022-07-30T04:48:20;100668.75;;;17.79;100.00
13705;BME280;6924;52.122;9.952;2022-07-30T04:50:52;100659.34;;;17.78;100.00
13705;BME280;6924;52.122;9.952;2022-07-30T04:53:22;100661.72;;;17.76;100.00
13705;BME280;6924;52.122;9.952;2022-07-30T04:55:50;100670.31;;;17.76;100.00
13705;BME280;6924;52.122;9.952;2022-07-30T04:58:19;100662.06;;;17.74;100.00
13705;BME280;6924;52.122;9.952;2022-07-30T05:00:46;100652.19;;;17.72;100.00
13705;BME280;6924;52.122;9.952;2022-07-30T05:03:15;100647.28;;;17.72;100.00
13705;BME280;6924;52.122;9.952;2022-07-30T05:05:43;100644.91;;;17.74;100.00
13705;BME280;6924;52.122;9.952;2022-07-30T05:08:11;100637.53;;;17.73;100.00
13705;BME280;6924;52.122;9.952;2022-07-30T05:10:39;100637.88;;;17.72;100.00
13705;BME280;6924;52.122;9.952;2022-07-30T05:13:10;100641.97;;;17.71;100.00
13705;BME280;6924;52.122;9.952;2022-07-30T05:15:37;100644.34;;;17.69;100.00
13705;BME280;6924;52.122;9.952;2022-07-30T05:18:04;100644.69;;;17.67;100.00
13705;BME280;6924;52.122;9.952;2022-07-30T05:20:30;100641.38;;;17.65;100.00
13705;BME280;6924;52.122;9.952;2022-07-30T05:22:57;100638.50;;;17.65;100.00
13705;BME280;6924;52.122;9.952;2022-07-30T05:25:24;100645.91;;;17.66;100.00
13705;BME280;6924;52.122;9.952;2022-07-30T05:27:52;100629.94;;;17.65;100.00
13705;BME280;6924;52.122;9.952;2022-07-30T05:30:20;100637.31;;;17.66;100.00
13705;BME280;6924;52.122;9.952;2022-07-30T05:32:47;100632.44;;;17.67;100.00
13705;BME280;6924;52.122;9.952;2022-07-30T05:35:14;100637.31;;;17.66;100.00
13705;BME280;6924;52.122;9.952;2022-07-30T05:37:40;100648.75;;;17.66;100.00
13705;BME280;6924;52.122;9.952;2022-07-30T05:40:08;100660.22;;;17.66;100.00
13705;BME280;6924;52.122;9.952;2022-07-30T05:42:34;100661.38;;;17.65;100.00
13705;BME280;6924;52.122;9.952;2022-07-30T05:45:03;100663.91;;;17.67;100.00
13705;BME280;6924;52.122;9.952;2022-07-30T05:47:29;100673.31;;;17.67;100.00
13705;BME280;6924;52.122;9.952;2022-07-30T05:49:56;100678.53;;;17.65;100.00
13705;BME280;6924;52.122;9.952;2022-07-30T05:52:22;100677.25;;;17.63;100.00
13705;BME280;6924;52.122;9.952;2022-07-30T05:54:49;100672.34;;;17.63;100.00
13705;BME280;6924;52.122;9.952;2022-07-30T05:57:16;100680.47;;;17.61;100.00
13705;BME280;6924;52.122;9.952;2022-07-30T05:59:42;100682.97;;;17.63;100.00
13705;BME280;6924;52.122;9.952;2022-07-30T06:02:10;100672.72;;;17.62;100.00
13705;BME280;6924;52.122;9.952;2022-07-30T06:04:37;100680.47;;;17.61;100.00
13705;BME280;6924;52.122;9.952;2022-07-30T06:07:03;100684.63;;;17.64;100.00
13705;BME280;6924;52.122;9.952;2022-07-30T06:09:30;100684.28;;;17.65;100.00
13705;BME280;6924;52.122;9.952;2022-07-30T06:11:57;100677.84;;;17.68;100.00
13705;BME280;6924;52.122;9.952;2022-07-30T06:14:23;100678.31;;;17.70;100.00
13705;BME280;6924;52.122;9.952;2022-07-30T06:16:50;100677.47;;;17.70;100.00
13705;BME280;6924;52.122;9.952;2022-07-30T06:19:18;100675.47;;;17.70;100.00
13705;BME280;6924;52.122;9.952;2022-07-30T06:21:44;100671.38;;;17.71;100.00
13705;BME280;6924;52.122;9.952;2022-07-30T06:24:11;100675.19;;;17.75;100.00
13705;BME280;6924;52.122;9.952;2022-07-30T06:26:37;100678.88;;;17.76;100.00
13705;BME280;6924;52.122;9.952;2022-07-30T06:29:04;100676.50;;;17.78;100.00
13705;BME280;6924;52.122;9.952;2022-07-30T06:31:31;100665.53;;;17.80;100.00
13705;BME280;6924;52.122;9.952;2022-07-30T06:33:58;100658.59;;;17.81;100.00
13705;BME280;6924;52.122;9.952;2022-07-30T06:36:26;100658.28;;;17.83;100.00
13705;BME280;6924;52.122;9.952;2022-07-30T06:38:52;100659.97;;;17.84;100.00
13705;BME280;6924;52.122;9.952;2022-07-30T06:41:19;100666.13;;;17.86;100.00
13705;BME280;6924;52.122;9.952;2022-07-30T06:43:45;100665.78;;;17.87;100.00
13705;BME280;6924;52.122;9.952;2022-07-30T06:46:12;100664.94;;;17.87;100.00
13705;BME280;6924;52.122;9.952;2022-07-30T06:48:38;100664.59;;;17.88;100.00
13705;BME280;6924;52.122;9.952;2022-07-30T06:51:06;100673.19;;;17.88;100.00
13705;BME280;6924;52.122;9.952;2022-07-30T06:53:34;100665.06;;;17.90;100.00
13705;BME280;6924;52.122;9.952;2022-07-30T06:56:01;100669.69;;;17.95;100.00
13705;BME280;6924;52.122;9.952;2022-07-30T06:58:27;100682.44;;;17.98;100.00
13705;BME280;6924;52.122;9.952;2022-07-30T07:00:54;100682.19;;;18.03;100.00
13705;BME280;6924;52.122;9.952;2022-07-30T07:03:20;100681.09;;;18.07;100.00
13705;BME280;6924;52.122;9.952;2022-07-30T07:05:47;100681.69;;;18.13;100.00
13705;BME280;6924;52.122;9.952;2022-07-30T07:08:14;100679.38;;;18.18;100.00
13705;BME280;6924;52.122;9.952;2022-07-30T07:10:42;100686.50;;;18.25;100.00
13705;BME280;6924;52.122;9.952;2022-07-30T07:13:08;100685.41;;;18.29;100.00
13705;BME280;6924;52.122;9.952;2022-07-30T07:15:35;100681.56;;;18.37;100.00
13705;BME280;6924;52.122;9.952;2022-07-30T07:18:02;100678.06;;;18.44;100.00
13705;BME280;6924;52.122;9.952;2022-07-30T07:20:29;100679.94;;;18.52;100.00
13705;BME280;6924;52.122;9.952;2022-07-30T07:22:58;100677.28;;;18.59;100.00
13705;BME280;6924;52.122;9.952;2022-07-30T07:25:25;100668.03;;;18.66;100.00
13705;BME280;6924;52.122;9.952;2022-07-30T07:27:54;100672.31;;;18.72;100.00
13705;BME280;6924;52.122;9.952;2022-07-30T07:30:20;100671.69;;;18.79;100.00
13705;BME280;6924;52.122;9.952;2022-07-30T07:32:47;100663.66;;;18.85;100.00
13705;BME280;6924;52.122;9.952;2022-07-30T07:35:13;100668.72;;;18.91;100.00
13705;BME280;6924;52.122;9.952;2022-07-30T07:37:40;100662.34;;;18.98;100.00
13705;BME280;6924;52.122;9.952;2022-07-30T07:40:08;100654.78;;;19.06;100.00
13705;BME280;6924;52.122;9.952;2022-07-30T07:42:36;100656.16;;;19.12;100.00
13705;BME280;6924;52.122;9.952;2022-07-30T07:45:06;100659.31;;;19.23;100.00
13705;BME280;6924;52.122;9.952;2022-07-30T07:47:42;100648.84;;;19.30;100.00
13705;BME280;6924;52.122;9.952;2022-07-30T07:50:08;100655.59;;;19.38;100.00
13705;BME280;6924;52.122;9.952;2022-07-30T07:52:35;100647.81;;;19.38;100.00
13705;BME280;6924;52.122;9.952;2022-07-30T07:55:02;100647.66;;;19.51;100.00
13705;BME280;6924;52.122;9.952;2022-07-30T07:57:28;100639.72;;;19.60;100.00
13705;BME280;6924;52.122;9.952;2022-07-30T07:59:55;100645.59;;;19.67;100.00
13705;BME280;6924;52.122;9.952;2022-07-30T08:02:23;100638.19;;;19.66;100.00
13705;BME280;6924;52.122;9.952;2022-07-30T08:04:50;100642.63;;;19.79;100.00
13705;BME280;6924;52.122;9.952;2022-07-30T08:07:17;100644.91;;;19.90;100.00
13705;BME280;6924;52.122;9.952;2022-07-30T08:09:43;100642.63;;;19.99;100.00
13705;BME280;6924;52.122;9.952;2022-07-30T08:12:10;100637.72;;;19.99;99.26
13705;BME280;6924;52.122;9.952;2022-07-30T08:14:37;100641.59;;;20.07;100.00
13705;BME280;6924;52.122;9.952;2022-07-30T08:17:03;100649.44;;;20.10;100.00
13705;BME280;6924;52.122;9.952;2022-07-30T08:19:32;100644.59;;;20.14;100.00
13705;BME280;6924;52.122;9.952;2022-07-30T08:21:58;100646.72;;;20.17;100.00
13705;BME280;6924;52.122;9.952;2022-07-30T08:24:25;100645.59;;;20.22;100.00
13705;BME280;6924;52.122;9.952;2022-07-30T08:26:51;100643.59;;;20.26;100.00
13705;BME280;6924;52.122;9.952;2022-07-30T08:29:18;100644.13;;;20.32;98.60
13705;BME280;6924;52.122;9.952;2022-07-30T08:31:44;100649.56;;;20.37;99.17
13705;BME280;6924;52.122;9.952;2022-07-30T08:34:11;100651.69;;;20.40;98.24
13705;BME280;6924;52.122;9.952;2022-07-30T08:36:40;100655.84;;;20.42;95.75
13705;BME280;6924;52.122;9.952;2022-07-30T08:39:07;100650.56;;;20.44;92.81
13705;BME280;6924;52.122;9.952;2022-07-30T08:41:34;100648.50;;;20.45;92.12
13705;BME280;6924;52.122;9.952;2022-07-30T08:44:02;100644.47;;;20.50;91.82
13705;BME280;6924;52.122;9.952;2022-07-30T08:46:32;100651.06;;;20.50;91.03
13705;BME280;6924;52.122;9.952;2022-07-30T08:49:00;100648.63;;;20.52;90.88
13705;BME280;6924;52.122;9.952;2022-07-30T08:51:27;100643.75;;;20.53;92.78
13705;BME280;6924;52.122;9.952;2022-07-30T08:53:55;100653.25;;;20.57;91.78
13705;BME280;6924;52.122;9.952;2022-07-30T08:56:22;100650.38;;;20.57;92.65
13705;BME280;6924;52.122;9.952;2022-07-30T08:58:49;100657.72;;;20.54;91.77
13705;BME280;6924;52.122;9.952;2022-07-30T09:01:16;100657.72;;;20.54;92.49
13705;BME280;6924;52.122;9.952;2022-07-30T09:03:42;100654.84;;;20.54;94.01
13705;BME280;6924;52.122;9.952;2022-07-30T09:06:09;100654.84;;;20.54;94.15
13705;BME280;6924;52.122;9.952;2022-07-30T09:08:36;100654.13;;;20.57;94.94
13705;BME280;6924;52.122;9.952;2022-07-30T09:11:04;100654.25;;;20.64;97.18
13705;BME280;6924;52.122;9.952;2022-07-30T09:13:32;100654.69;;;20.67;93.37
13705;BME280;6924;52.122;9.952;2022-07-30T09:16:00;100659.38;;;20.75;94.84
13705;BME280;6924;52.122;9.952;2022-07-30T09:18:28;100654.91;;;20.77;94.54
13705;BME280;6924;52.122;9.952;2022-07-30T09:20:56;100657.53;;;20.86;94.54
13705;BME280;6924;52.122;9.952;2022-07-30T09:23:23;100664.19;;;20.90;91.27
13705;BME280;6924;52.122;9.952;2022-07-30T09:25:50;100665.94;;;20.98;90.69
13705;BME280;6924;52.122;9.952;2022-07-30T09:28:27;100669.34;;;21.04;87.96
13705;BME280;6924;52.122;9.952;2022-07-30T09:30:55;100666.66;;;21.15;89.26
13705;BME280;6924;52.122;9.952;2022-07-30T09:33:34;100667.13;;;21.20;88.77
13705;BME280;6924;52.122;9.952;2022-07-30T09:36:01;100664.81;;;21.30;86.11
13705;BME280;6924;52.122;9.952;2022-07-30T09:38:28;100668.34;;;21.42;83.84
13705;BME280;6924;52.122;9.952;2022-07-30T09:40:57;100665.16;;;21.48;83.61
13705;BME280;6924;52.122;9.952;2022-07-30T09:43:25;100675.25;;;21.61;83.50
13705;BME280;6924;52.122;9.952;2022-07-30T09:45:53;100674.63;;;21.75;83.79
13705;BME280;6924;52.122;9.952;2022-07-30T09:48:24;100678.09;;;21.87;80.20
13705;BME280;6924;52.122;9.952;2022-07-30T09:50:54;100672.06;;;22.00;79.31
13705;BME280;6924;52.122;9.952;2022-07-30T09:53:21;100679.09;;;22.02;79.01
13705;BME280;6924;52.122;9.952;2022-07-30T09:55:47;100676.72;;;22.08;75.34
13705;BME280;6924;52.122;9.952;2022-07-30T09:58:15;100670.59;;;22.13;73.14
13705;BME280;6924;52.122;9.952;2022-07-30T10:00:44;100677.34;;;22.24;75.40
13705;BME280;6924;52.122;9.952;2022-07-30T10:03:16;100674.19;;;22.33;75.70
13705;BME280;6924;52.122;9.952;2022-07-30T10:05:50;100675.97;;;22.45;72.92
13705;BME280;6924;52.122;9.952;2022-07-30T10:08:17;100673.22;;;22.56;72.43
13705;BME280;6924;52.122;9.952;2022-07-30T10:10:45;100672.81;;;22.57;73.70
13705;BME280;6924;52.122;9.952;2022-07-30T10:13:15;100671.44;;;22.44;72.03
13705;BME280;6924;52.122;9.952;2022-07-30T10:15:44;100678.63;;;22.61;71.28
13705;BME280;6924;52.122;9.952;2022-07-30T10:18:11;100673.00;;;22.75;68.07
13705;BME280;6924;52.122;9.952;2022-07-30T10:20:38;100666.13;;;22.87;70.66
13705;BME280;6924;52.122;9.952;2022-07-30T10:23:06;100678.16;;;22.96;66.55
13705;BME280;6924;52.122;9.952;2022-07-30T10:25:33;100681.88;;;22.97;70.73
13705;BME280;6924;52.122;9.952;2022-07-30T10:28:00;100677.88;;;23.05;68.79
13705;BME280;6924;52.122;9.952;2022-07-30T10:30:28;100676.19;;;23.04;65.52
13705;BME280;6924;52.122;9.952;2022-07-30T10:32:57;100677.75;;;22.94;67.41
13705;BME280;6924;52.122;9.952;2022-07-30T10:35:24;100674.78;;;22.87;67.41
13705;BME280;6924;52.122;9.952;2022-07-30T10:37:50;100676.44;;;22.88;64.86
13705;BME280;6924;52.122;9.952;2022-07-30T10:40:22;100674.63;;;22.73;63.51
13705;BME280;6924;52.122;9.952;2022-07-30T10:43:14;100670.66;;;22.88;62.93
13705;BME280;6924;52.122;9.952;2022-07-30T10:45:46;100668.84;;;23.06;63.17
13705;BME280;6924;52.122;9.952;2022-07-30T10:48:21;100671.94;;;23.31;66.64
13705;BME280;6924;52.122;9.952;2022-07-30T10:50:50;100675.53;;;23.21;63.27
13705;BME280;6924;52.122;9.952;2022-07-30T10:53:34;100671.88;;;23.24;61.24
13705;BME280;6924;52.122;9.952;2022-07-30T10:56:12;100671.09;;;22.90;60.54
13705;BME280;6924;52.122;9.952;2022-07-30T10:58:57;100672.66;;;22.80;62.05
13705;BME280;6924;52.122;9.952;2022-07-30T11:01:24;100671.16;;;22.97;64.15
13705;BME280;6924;52.122;9.952;2022-07-30T11:04:20;100669.94;;;22.98;64.13
13705;BME280;6924;52.122;9.952;2022-07-30T11:06:47;100661.59;;;22.86;62.11
13705;BME280;6924;52.122;9.952;2022-07-30T11:09:35;100674.25;;;22.74;62.69
13705;BME280;6924;52.122;9.952;2022-07-30T11:12:03;100676.19;;;22.63;58.58
13705;BME280;6924;52.122;9.952;2022-07-30T11:14:54;100671.91;;;22.49;60.54
13705;BME280;6924;52.122;9.952;2022-07-30T11:17:22;100674.13;;;22.63;64.65
13705;BME280;6924;52.122;9.952;2022-07-30T11:20:09;100672.25;;;22.82;65.70
13705;BME280;6924;52.122;9.952;2022-07-30T11:22:37;100673.09;;;22.82;61.02
13705;BME280;6924;52.122;9.952;2022-07-30T11:25:05;100680.84;;;22.75;61.20
13705;BME280;6924;52.122;9.952;2022-07-30T11:27:34;100672.97;;;22.72;60.63
13705;BME280;6924;52.122;9.952;2022-07-30T11:30:00;100674.59;;;22.69;63.15
13705;BME280;6924;52.122;9.952;2022-07-30T11:32:29;100677.00;;;22.63;61.77
13705;BME280;6924;52.122;9.952;2022-07-30T11:35:16;100668.72;;;22.58;62.89
13705;BME280;6924;52.122;9.952;2022-07-30T11:37:58;100673.69;;;22.61;64.42
13705;BME280;6924;52.122;9.952;2022-07-30T11:40:25;100674.19;;;22.67;63.86
13705;BME280;6924;52.122;9.952;2022-07-30T11:43:17;100676.56;;;22.61;63.50
13705;BME280;6924;52.122;9.952;2022-07-30T11:45:44;100663.16;;;22.76;64.06
13705;BME280;6924;52.122;9.952;2022-07-30T11:48:12;100669.03;;;22.90;62.91
13705;BME280;6924;52.122;9.952;2022-07-30T11:50:41;100667.78;;;22.88;65.33
13705;BME280;6924;52.122;9.952;2022-07-30T11:53:09;100664.06;;;22.87;62.62
13705;BME280;6924;52.122;9.952;2022-07-30T11:55:40;100657.06;;;22.85;61.89
13705;BME280;6924;52.122;9.952;2022-07-30T11:58:09;100662.19;;;23.02;63.46
13705;BME280;6924;52.122;9.952;2022-07-30T12:00:37;100662.25;;;23.09;61.69
13705;BME280;6924;52.122;9.952;2022-07-30T12:03:11;100657.28;;;23.06;59.10
13705;BME280;6924;52.122;9.952;2022-07-30T12:05:40;100657.34;;;23.14;58.00
13705;BME280;6924;52.122;9.952;2022-07-30T12:08:07;100661.97;;;23.22;58.88
13705;BME280;6924;52.122;9.952;2022-07-30T12:10:33;100656.75;;;23.45;62.54
13705;BME280;6924;52.122;9.952;2022-07-30T12:13:07;100654.41;;;23.62;61.33
13705;BME280;6924;52.122;9.952;2022-07-30T12:15:35;100650.84;;;23.79;59.30
13705;BME280;6924;52.122;9.952;2022-07-30T12:18:02;100647.22;;;23.93;56.55
13705;BME280;6924;52.122;9.952;2022-07-30T12:20:28;100653.41;;;23.99;54.58
13705;BME280;6924;52.122;9.952;2022-07-30T12:22:57;100649.31;;;24.00;53.63
13705;BME280;6924;52.122;9.952;2022-07-30T12:25:23;100649.31;;;24.00;57.47
13705;BME280;6924;52.122;9.952;2022-07-30T12:27:51;100649.63;;;23.84;56.35
13705;BME280;6924;52.122;9.952;2022-07-30T12:30:17;100648.78;;;23.80;56.98
13705;BME280;6924;52.122;9.952;2022-07-30T12:32:45;100654.56;;;23.83;57.63
13705;BME280;6924;52.122;9.952;2022-07-30T12:35:12;100650.06;;;23.86;59.74
13705;BME280;6924;52.122;9.952;2022-07-30T12:37:38;100649.25;;;23.89;58.99
13705;BME280;6924;52.122;9.952;2022-07-30T12:40:10;100662.03;;;23.88;58.98
13705;BME280;6924;52.122;9.952;2022-07-30T12:42:48;100650.44;;;23.81;57.55
13705;BME280;6924;52.122;9.952;2022-07-30T12:45:25;100648.00;;;23.86;60.80
13705;BME280;6924;52.122;9.952;2022-07-30T12:47:52;100651.31;;;23.88;59.40
13705;BME280;6924;52.122;9.952;2022-07-30T12:50:19;100645.13;;;23.93;60.35
13705;BME280;6924;52.122;9.952;2022-07-30T12:52:47;100646.75;;;23.84;58.52
13705;BME280;6924;52.122;9.952;2022-07-30T12:55:19;100638.47;;;23.82;58.15
13705;BME280;6924;52.122;9.952;2022-07-30T12:57:58;100640.56;;;23.82;56.74
13705;BME280;6924;52.122;9.952;2022-07-30T13:00:29;100637.13;;;23.69;57.83
13705;BME280;6924;52.122;9.952;2022-07-30T13:02:56;100635.84;;;23.63;58.17
13705;BME280;6924;52.122;9.952;2022-07-30T13:05:41;100631.66;;;23.49;57.12